Time;durP1;ratioP1;P1;durP2;ratioP2;P2;SDS_P1;SDS_P2;PMS_P1;PMS_P2;Temp;Humidity;BMP_temperature;BMP_pressure;BME280_temperature;BME280_humidity;BME280_pressure;Samples;Min_cycle;Max_cycle;Signal;HPM_P1;HPM_P2
2021/12/11 00:01:46;;;;;;;100.53;37.53;;;;;;;4.12;77.85;99665.69;5034361;28;20192;-68
2021/12/11 00:04:20;;;;;;;97.60;36.40;;;;;;;4.19;77.34;99669.75;5034637;28;20165;-68
2021/12/11 00:06:52;;;;;;;103.87;37.20;;;;;;;4.28;77.08;99685.16;5035072;28;20174;-68
2021/12/11 00:09:26;;;;;;;101.90;37.20;;;;;;;4.21;77.54;99693.44;5034500;28;20172;-68
2021/12/11 00:11:59;;;;;;;105.17;38.07;;;;;;;4.19;78.02;99697.94;4999825;28;20612;-68
2021/12/11 00:14:27;;;;;;;97.77;36.60;;;;;;;3.89;77.97;99673.75;5034284;28;20199;-68
2021/12/11 00:16:53;;;;;;;106.43;36.67;;;;;;;3.92;78.38;99694.72;5016062;28;20184;-67
2021/12/11 00:19:26;;;;;;;106.97;38.40;;;;;;;4.24;77.62;99701.22;5033944;28;20581;-68
2021/12/11 00:21:52;;;;;;;114.77;39.50;;;;;;;3.75;78.16;99703.38;5060383;22;20200;-72
2021/12/11 00:24:24;;;;;;;112.30;41.87;;;;;;;3.83;78.56;99709.19;5075077;28;20190;-72
2021/12/11 00:26:55;;;;;;;114.30;39.83;;;;;;;3.76;78.82;99705.09;5074819;28;20144;-71
2021/12/11 00:29:25;;;;;;;112.77;40.03;;;;;;;3.85;78.66;99719.69;5058602;28;20206;-71
2021/12/11 00:31:54;;;;;;;110.20;38.77;;;;;;;3.94;78.50;99719.28;5074177;28;20211;-72
2021/12/11 00:34:21;;;;;;;104.57;37.40;;;;;;;4.14;77.76;99715.78;5063452;28;20428;-71
2021/12/11 00:36:55;;;;;;;104.97;37.93;;;;;;;4.01;78.03;99715.44;5053093;28;20172;-72
2021/12/11 00:39:21;;;;;;;98.73;37.83;;;;;;;4.26;77.60;99721.38;5052155;28;20238;-72
2021/12/11 00:41:53;;;;;;;102.60;37.87;;;;;;;4.28;77.18;99734.50;5051889;28;20170;-73
2021/12/11 00:44:19;;;;;;;107.13;39.03;;;;;;;4.22;77.57;99726.84;5035873;28;20164;-72
2021/12/11 00:46:45;;;;;;;100.57;37.60;;;;;;;4.28;77.47;99734.50;5051722;28;20221;-72
2021/12/11 00:49:15;;;;;;;103.57;37.13;;;;;;;4.04;77.75;99742.56;5051423;28;20556;-72
2021/12/11 00:51:40;;;;;;;108.17;37.63;;;;;;;3.76;78.25;99737.63;5051991;28;20635;-72
2021/12/11 00:54:06;;;;;;;95.33;35.93;;;;;;;3.75;78.66;99733.28;5034873;28;20187;-72
2021/12/11 00:56:35;;;;;;;101.40;36.23;;;;;;;3.73;79.61;99768.56;5051419;28;20599;-72
2021/12/11 00:59:03;;;;;;;95.50;34.03;;;;;;;3.91;78.55;99756.38;5051527;28;20206;-72
2021/12/11 01:01:31;;;;;;;95.00;34.70;;;;;;;4.15;78.50;99760.59;5052521;28;20535;-73
2021/12/11 01:03:58;;;;;;;98.67;36.37;;;;;;;4.24;78.16;99760.19;5034679;28;20199;-72
2021/12/11 01:06:40;;;;;;;101.73;36.33;;;;;;;4.24;78.04;99769.91;5052530;28;20187;-72
2021/12/11 01:09:11;;;;;;;108.83;35.57;;;;;;;4.11;77.20;99753.75;5038536;28;20188;-72
2021/12/11 01:11:41;;;;;;;97.07;35.60;;;;;;;4.18;77.83;99768.41;5055328;28;20164;-72
2021/12/11 01:14:18;;;;;;;102.17;37.00;;;;;;;4.10;78.17;99774.94;5055184;28;20493;-72
2021/12/11 01:16:50;;;;;;;103.53;35.37;;;;;;;3.78;78.59;99763.09;5039723;28;20175;-72
2021/12/11 01:19:18;;;;;;;101.80;34.53;;;;;;;4.11;78.74;99792.50;5038745;28;20218;-72
2021/12/11 01:21:56;;;;;;;105.87;36.17;;;;;;;4.04;78.26;99774.25;5054511;28;20178;-73
2021/12/11 01:26:56;;;;;;;104.47;36.00;;;;;;;4.13;78.64;99798.56;5056401;28;20163;-72
2021/12/11 01:29:23;;;;;;;97.20;33.83;;;;;;;4.10;78.22;99785.50;5054727;28;20271;-72
2021/12/11 01:31:50;;;;;;;104.30;36.83;;;;;;;4.12;79.09;99802.13;5038007;28;20207;-70
2021/12/11 01:34:16;;;;;;;92.63;33.83;;;;;;;4.31;78.40;99806.53;5055195;28;20667;-72
2021/12/11 01:36:42;;;;;;;104.33;36.27;;;;;;;4.32;77.86;99794.19;5054624;28;20413;-71
2021/12/11 01:39:13;;;;;;;93.20;32.30;;;;;;;4.34;77.30;99792.34;5055024;28;20203;-72
2021/12/11 01:41:40;;;;;;;102.20;35.37;;;;;;;4.49;77.28;99812.81;5055169;28;20168;-73
2021/12/11 01:44:13;;;;;;;103.63;36.03;;;;;;;4.48;77.83;99816.41;5038250;28;20182;-73
2021/12/11 01:46:38;;;;;;;102.93;34.50;;;;;;;4.23;77.00;99805.16;5038682;28;20493;-72
2021/12/11 01:49:09;;;;;;;98.30;34.47;;;;;;;4.31;78.19;99832.09;5054681;28;20249;-73
2021/12/11 01:51:40;;;;;;;99.50;33.97;;;;;;;4.26;78.50;99842.00;5037908;28;20551;-72
2021/12/11 01:54:19;;;;;;;96.10;35.43;;;;;;;4.23;79.08;99845.66;5038867;28;20531;-72
2021/12/11 01:56:48;;;;;;;99.33;34.67;;;;;;;4.36;78.07;99844.19;5038189;28;20163;-73
2021/12/11 01:59:23;;;;;;;98.73;35.63;;;;;;;4.38;78.53;99844.13;5055036;28;20654;-71
2021/12/11 02:01:57;;;;;;;105.83;34.53;;;;;;;4.47;77.86;99853.47;5054619;28;20201;-71
2021/12/11 02:04:26;;;;;;;109.40;36.13;;;;;;;4.44;77.87;99843.84;5038464;28;20177;-72
2021/12/11 02:06:53;;;;;;;106.17;34.13;;;;;;;4.42;77.51;99845.69;5037939;28;20211;-72
2021/12/11 02:09:27;;;;;;;90.67;32.90;;;;;;;4.52;78.27;99857.59;5037920;28;20199;-72
2021/12/11 02:12:14;;;;;;;100.27;34.30;;;;;;;4.59;77.88;99861.69;5054614;28;20685;-71
2021/12/11 02:14:44;;;;;;;95.47;33.97;;;;;;;4.49;77.74;99863.03;5054638;28;20160;-72
2021/12/11 02:17:23;;;;;;;106.10;34.27;;;;;;;4.55;78.32;99870.69;5055678;28;20156;-71
2021/12/11 02:19:51;;;;;;;104.17;35.07;;;;;;;4.52;77.52;99868.19;5054675;28;20171;-72
2021/12/11 02:22:24;;;;;;;96.17;34.53;;;;;;;4.66;77.83;99876.34;5054350;28;20203;-72
2021/12/11 02:24:53;;;;;;;117.67;36.80;;;;;;;4.43;78.19;99870.34;5037564;28;20179;-71
2021/12/11 02:27:27;;;;;;;101.87;35.13;;;;;;;4.50;78.77;99882.38;5037440;28;20263;-71
2021/12/11 02:30:07;;;;;;;97.20;35.10;;;;;;;4.49;78.52;99891.25;5037589;28;20221;-72
2021/12/11 02:32:39;;;;;;;99.87;34.27;;;;;;;4.59;78.37;99893.41;5053864;28;20192;-71
2021/12/11 02:35:19;;;;;;;94.97;33.87;;;;;;;4.63;78.58;99905.56;5054049;28;20454;-72
2021/12/11 02:37:49;;;;;;;100.93;34.80;;;;;;;4.67;78.16;99898.34;5053801;28;20201;-71
2021/12/11 02:40:29;;;;;;;108.47;33.87;;;;;;;4.65;78.51;99898.44;5053675;28;20174;-70
2021/12/11 02:42:59;;;;;;;106.77;35.63;;;;;;;4.65;77.88;99882.56;5037808;28;20583;-70
2021/12/11 02:45:46;;;;;;;106.77;34.90;;;;;;;4.79;77.90;99896.94;5040660;28;20206;-71
2021/12/11 02:48:46;;;;;;;101.40;34.27;;;;;;;4.81;77.49;99900.38;5058287;28;20183;-72
2021/12/11 02:51:27;;;;;;;100.13;33.47;;;;;;;4.65;77.80;99898.44;5029774;28;20232;-71
2021/12/11 02:53:57;;;;;;;97.83;33.73;;;;;;;4.74;77.60;99907.72;5037468;28;20298;-71
2021/12/11 02:56:31;;;;;;;102.43;34.70;;;;;;;4.55;78.41;99912.13;5053657;28;20521;-71
2021/12/11 02:59:00;;;;;;;97.60;32.83;;;;;;;4.65;78.35;99910.78;5054763;28;20216;-71
2021/12/11 03:01:30;;;;;;;103.43;35.37;;;;;;;4.52;78.88;99920.19;5053344;28;20524;-71
2021/12/11 03:04:32;;;;;;;107.50;35.53;;;;;;;4.27;79.81;99930.91;5054829;28;20202;-71
2021/12/11 03:07:02;;;;;;;110.07;36.73;;;;;;;4.44;79.59;99925.75;5046989;28;20191;-71
2021/12/11 03:09:30;;;;;;;136.07;36.57;;;;;;;4.33;80.10;99933.28;5037404;28;20639;-71
2021/12/11 03:11:58;;;;;;;114.90;34.63;;;;;;;4.48;79.83;99937.94;5053455;28;20199;-72
2021/12/11 03:14:25;;;;;;;115.20;34.97;;;;;;;4.46;79.44;99923.94;5054519;28;20210;-71
2021/12/11 03:16:51;;;;;;;116.27;36.40;;;;;;;4.23;79.92;99929.31;5053426;28;20176;-72
2021/12/11 03:19:23;;;;;;;123.23;37.13;;;;;;;4.35;80.50;99940.22;5055652;28;20574;-72
2021/12/11 03:21:49;;;;;;;119.17;35.23;;;;;;;4.29;79.84;99937.84;5037661;28;20550;-73
2021/12/11 03:24:15;;;;;;;130.93;35.53;;;;;;;4.37;79.50;99953.38;5054797;28;20245;-72
2021/12/11 03:26:42;;;;;;;121.87;35.20;;;;;;;4.43;79.88;99963.66;5053894;28;20267;-71
2021/12/11 03:29:08;;;;;;;129.43;33.87;;;;;;;4.50;79.46;99945.81;5035468;28;20238;-72
2021/12/11 03:31:37;;;;;;;147.47;35.80;;;;;;;4.53;79.57;99958.88;5036108;28;20187;-72
2021/12/11 03:34:05;;;;;;;146.33;37.10;;;;;;;4.59;79.14;99961.28;5052774;28;20175;-72
2021/12/11 03:36:33;;;;;;;121.33;35.97;;;;;;;4.63;78.48;99952.28;5052751;28;20176;-71
2021/12/11 03:39:02;;;;;;;116.23;35.90;;;;;;;4.75;79.32;99962.31;5052719;28;20174;-72
2021/12/11 03:41:28;;;;;;;117.33;34.93;;;;;;;4.74;78.56;99957.09;5036133;28;20639;-72
2021/12/11 03:43:54;;;;;;;111.37;35.03;;;;;;;4.66;78.38;99957.44;5052522;28;20256;-71
2021/12/11 03:46:20;;;;;;;105.43;33.67;;;;;;;4.74;78.56;99954.47;5036055;28;20180;-72
2021/12/11 03:48:51;;;;;;;115.17;35.27;;;;;;;4.77;78.85;99967.53;5036090;28;20671;-71
2021/12/11 03:51:21;;;;;;;112.17;35.93;;;;;;;4.70;79.16;99965.16;5053040;28;20167;-71
2021/12/11 03:53:46;;;;;;;119.53;33.87;;;;;;;4.72;79.02;99963.31;5035876;28;20199;-71
2021/12/11 03:56:14;;;;;;;119.90;36.53;;;;;;;4.85;78.39;99978.69;5052595;28;20180;-71
2021/12/11 03:58:48;;;;;;;131.47;36.13;;;;;;;4.75;78.60;99977.31;5035673;28;20179;-71
2021/12/11 04:01:21;;;;;;;119.33;36.63;;;;;;;4.84;78.91;99987.53;5037097;28;20167;-71
2021/12/11 04:03:49;;;;;;;105.33;35.20;;;;;;;4.90;78.47;99984.63;5036215;28;20196;-71
2021/12/11 04:06:15;;;;;;;101.33;33.63;;;;;;;4.76;78.96;99986.97;5035814;28;20178;-71
2021/12/11 04:08:42;;;;;;;102.33;33.37;;;;;;;4.68;78.88;99993.44;5052065;28;20190;-71
2021/12/11 04:11:09;;;;;;;88.13;30.23;;;;;;;4.66;79.24;99990.00;5052525;28;20176;-70
2021/12/11 04:13:35;;;;;;;86.73;31.20;;;;;;;4.58;78.94;99994.75;5052384;28;20679;-70
2021/12/11 04:16:01;;;;;;;87.77;30.53;;;;;;;4.60;79.06;99997.34;5035655;28;20251;-70
2021/12/11 04:18:26;;;;;;;79.20;28.80;;;;;;;4.50;79.08;99998.66;5052773;28;20203;-72
2021/12/11 04:20:51;;;;;;;84.47;27.97;;;;;;;4.66;79.25;100002.38;5035721;28;20205;-70
2021/12/11 04:23:18;;;;;;;79.47;28.17;;;;;;;4.57;79.21;100019.47;5035212;28;20264;-71
2021/12/11 04:25:45;;;;;;;91.27;28.73;;;;;;;4.55;79.48;100017.81;5035351;28;20172;-71
2021/12/11 04:28:11;;;;;;;100.83;30.33;;;;;;;4.28;79.75;100015.38;5035281;28;20298;-72
2021/12/11 04:30:37;;;;;;;91.53;30.00;;;;;;;4.47;79.54;100020.78;5053090;28;20722;-71
2021/12/11 04:33:03;;;;;;;90.73;28.07;;;;;;;4.40;79.80;100009.56;5034911;28;20282;-72
2021/12/11 04:35:30;;;;;;;102.60;30.37;;;;;;;4.44;79.85;100026.16;5051768;28;20270;-72
2021/12/11 04:37:57;;;;;;;96.67;29.87;;;;;;;4.62;79.46;100025.44;5051982;28;20207;-73
2021/12/11 04:40:27;;;;;;;109.07;30.80;;;;;;;4.65;79.47;100035.88;5037503;28;20655;-71
2021/12/11 04:43:05;;;;;;;111.27;30.37;;;;;;;4.66;78.88;100021.72;5039758;28;20195;-70
2021/12/11 04:45:37;;;;;;;95.37;29.30;;;;;;;4.78;78.79;100030.06;5042113;28;20193;-71
2021/12/11 04:48:14;;;;;;;106.20;30.27;;;;;;;4.57;78.89;100026.53;5057382;28;20187;-72
2021/12/11 04:50:51;;;;;;;103.33;29.63;;;;;;;4.41;79.74;100044.78;5057456;28;20175;-72
2021/12/11 04:53:34;;;;;;;94.97;28.47;;;;;;;4.48;79.49;100043.66;5040676;28;20202;-72
2021/12/11 04:56:26;;;;;;;109.87;28.80;;;;;;;4.43;79.83;100053.50;5056921;28;20246;-72
2021/12/11 04:58:58;;;;;;;106.50;30.57;;;;;;;4.47;79.97;100065.72;5056949;28;20187;-73
2021/12/11 05:01:45;;;;;;;91.53;28.20;;;;;;;4.57;80.15;100068.84;5055855;28;20697;-71
2021/12/11 05:09:39;;;;;;;98.30;31.10;;;;;;;4.74;79.36;100073.41;5074303;28;20218;-71
2021/12/11 05:12:15;;;;;;;95.70;29.90;;;;;;;4.74;79.60;100092.78;5058057;28;20270;-71
2021/12/11 05:14:41;;;;;;;104.33;30.40;;;;;;;4.56;80.32;100088.25;5072996;28;20167;-70
2021/12/11 05:17:07;;;;;;;87.13;28.37;;;;;;;4.47;80.54;100080.69;5038668;28;20217;-70
2021/12/11 05:19:32;;;;;;;86.67;28.27;;;;;;;4.34;80.33;100088.22;5038725;28;20234;-74
2021/12/11 05:21:58;;;;;;;99.27;28.90;;;;;;;4.36;80.38;100086.38;5038717;28;20211;-71
2021/12/11 05:24:23;;;;;;;96.50;29.03;;;;;;;4.35;80.92;100089.94;5055611;28;20203;-69
2021/12/11 05:26:49;;;;;;;91.80;27.40;;;;;;;4.34;80.14;100089.09;5056375;28;20214;-71
2021/12/11 05:29:15;;;;;;;123.73;30.07;;;;;;;4.43;80.21;100108.13;5054939;28;20270;-70
2021/12/11 05:31:40;;;;;;;105.67;29.33;;;;;;;4.37;80.09;100104.81;5038193;28;20237;-70
2021/12/11 05:34:07;;;;;;;98.30;28.50;;;;;;;4.45;80.25;100101.88;5054913;28;20547;-71
2021/12/11 05:36:35;;;;;;;114.40;30.83;;;;;;;4.44;81.00;100110.72;5038291;28;20202;-70
2021/12/11 05:39:09;;;;;;;111.80;30.60;;;;;;;4.29;80.70;100106.91;5054947;28;20172;-71
2021/12/11 05:41:34;;;;;;;109.67;30.67;;;;;;;4.44;81.02;100107.22;5054907;28;20168;-70
2021/12/11 05:43:59;;;;;;;119.17;32.07;;;;;;;4.34;80.45;100110.22;5055000;28;20202;-70
2021/12/11 05:46:25;;;;;;;148.97;33.97;;;;;;;4.22;81.19;100109.84;5038079;28;20183;-72
2021/12/11 05:48:51;;;;;;;127.27;34.83;;;;;;;4.26;80.81;100111.44;5054510;28;20253;-70
2021/12/11 05:51:21;;;;;;;131.97;34.40;;;;;;;4.38;81.02;100116.25;5037528;28;20226;-70
2021/12/11 05:53:49;;;;;;;147.00;35.23;;;;;;;4.27;81.75;100129.03;5038523;28;20226;-71
2021/12/11 05:56:15;;;;;;;124.37;33.20;;;;;;;4.27;81.25;100131.66;5039672;28;20198;-70
2021/12/11 06:01:17;;;;;;;120.10;32.27;;;;;;;4.01;81.85;100138.78;5068153;28;20190;-71
2021/12/11 06:03:43;;;;;;;115.77;31.83;;;;;;;4.31;81.40;100154.41;5059498;28;20297;-71
2021/12/11 06:06:08;;;;;;;133.80;33.90;;;;;;;4.26;80.78;100132.59;5054447;28;20175;-71
2021/12/11 06:08:34;;;;;;;116.20;32.60;;;;;;;4.10;82.11;100157.88;5054148;28;20556;-70
2021/12/11 06:11:00;;;;;;;111.23;31.63;;;;;;;4.24;81.31;100155.56;5054537;28;20179;-70
2021/12/11 06:13:26;;;;;;;130.83;34.60;;;;;;;4.41;80.80;100142.56;5054570;28;20203;-69
2021/12/11 06:15:54;;;;;;;132.07;33.23;;;;;;;4.49;80.28;100145.78;5055579;28;20233;-71
2021/12/11 06:18:19;;;;;;;107.43;31.17;;;;;;;4.40;80.82;100149.63;5055938;28;20535;-71
2021/12/11 06:20:47;;;;;;;120.33;32.17;;;;;;;4.50;80.48;100163.34;5055870;28;20254;-71
2021/12/11 06:23:14;;;;;;;129.50;31.20;;;;;;;4.41;80.90;100161.03;5056818;28;20290;-69
2021/12/11 06:25:40;;;;;;;154.73;32.80;;;;;;;4.28;81.07;100165.09;5039560;28;20250;-69
2021/12/11 06:28:06;;;;;;;99.67;29.53;;;;;;;4.60;80.85;100183.22;5056873;28;20242;-69
2021/12/11 06:30:32;;;;;;;130.37;32.93;;;;;;;4.51;80.79;100174.78;5039145;28;20219;-70
2021/12/11 06:32:57;;;;;;;116.27;31.30;;;;;;;4.45;80.81;100169.72;5054594;28;20545;-69
2021/12/11 06:35:44;;;;;;;143.87;33.57;;;;;;;4.61;81.29;100189.38;5054885;28;20183;-70
2021/12/11 06:38:12;;;;;;;127.23;30.47;;;;;;;4.48;80.91;100183.69;5054934;28;20199;-69
2021/12/11 06:40:37;;;;;;;121.63;31.33;;;;;;;4.51;80.52;100182.72;5053641;28;20172;-69
2021/12/11 06:43:03;;;;;;;130.87;31.97;;;;;;;4.38;80.71;100188.44;5053830;28;20206;-69
2021/12/11 06:45:29;;;;;;;138.00;33.13;;;;;;;4.54;80.69;100199.31;5054627;28;20190;-69
2021/12/11 06:47:54;;;;;;;107.83;30.53;;;;;;;4.71;80.26;100203.94;5055324;28;20656;-70
2021/12/11 06:50:20;;;;;;;121.27;32.17;;;;;;;4.69;80.63;100217.22;5053460;28;20180;-70
2021/12/11 06:52:47;;;;;;;95.53;29.83;;;;;;;4.76;80.23;100214.34;5036586;28;20341;-69
2021/12/11 06:55:14;;;;;;;98.77;31.57;;;;;;;4.77;80.03;100229.28;5053551;28;20224;-69
2021/12/11 06:57:39;;;;;;;93.77;28.87;;;;;;;4.66;80.43;100237.63;5036931;28;20624;-69
2021/12/11 07:00:06;;;;;;;102.83;29.37;;;;;;;4.86;79.85;100239.53;5037070;28;20183;-69
2021/12/11 07:02:31;;;;;;;88.23;27.97;;;;;;;4.96;79.40;100231.16;5053358;28;20204;-70
2021/12/11 07:04:57;;;;;;;82.57;26.57;;;;;;;4.59;79.65;100237.00;5036958;28;20230;-70
2021/12/11 07:07:25;;;;;;;75.70;26.30;;;;;;;4.64;80.31;100255.31;5053378;28;20184;-69
2021/12/11 07:09:53;;;;;;;72.43;25.23;;;;;;;4.76;79.94;100260.13;5036918;28;20183;-69
2021/12/11 07:12:19;;;;;;;87.07;25.00;;;;;;;4.65;80.22;100257.91;5053202;28;20202;-69
2021/12/11 07:14:46;;;;;;;73.43;23.87;;;;;;;4.52;80.23;100255.78;5053352;28;20725;-70
2021/12/11 07:17:12;;;;;;;75.77;24.37;;;;;;;4.55;79.93;100260.97;5036687;28;20179;-69
2021/12/11 07:19:37;;;;;;;66.77;23.77;;;;;;;4.62;80.45;100260.66;5053359;28;20167;-69
2021/12/11 07:22:03;;;;;;;70.70;24.03;;;;;;;4.34;80.10;100249.38;5054935;28;20701;-70
2021/12/11 07:24:38;;;;;;;79.33;24.30;;;;;;;4.33;81.25;100271.44;5053263;28;20646;-70
2021/12/11 07:27:06;;;;;;;74.03;24.93;;;;;;;4.32;81.46;100283.78;5053175;28;20194;-70
2021/12/11 07:29:32;;;;;;;78.87;25.90;;;;;;;4.29;81.85;100291.84;5052857;28;20195;-70
2021/12/11 07:31:58;;;;;;;79.47;26.63;;;;;;;4.44;81.20;100295.69;5036110;28;20199;-70
2021/12/11 07:34:23;;;;;;;75.57;23.47;;;;;;;4.32;80.85;100282.94;5052716;28;20262;-68
2021/12/11 07:36:50;;;;;;;85.87;25.67;;;;;;;4.31;81.45;100300.56;5052705;28;20539;-68
2021/12/11 07:39:17;;;;;;;68.53;22.73;;;;;;;4.30;81.81;100296.19;5052981;28;20175;-69
2021/12/11 07:41:43;;;;;;;74.93;25.00;;;;;;;4.38;81.67;100303.84;5052578;28;20230;-70
2021/12/11 07:44:09;;;;;;;78.70;24.47;;;;;;;4.32;80.99;100298.78;5052697;28;20171;-69
2021/12/11 07:46:34;;;;;;;66.00;22.83;;;;;;;4.34;80.93;100305.72;5052808;28;20539;-69
2021/12/11 07:49:00;;;;;;;73.27;25.40;;;;;;;4.41;81.44;100316.94;5053094;28;20265;-68
2021/12/11 07:51:27;;;;;;;72.60;24.97;;;;;;;4.34;81.54;100326.00;5053369;28;20199;-68
2021/12/11 07:53:53;;;;;;;69.13;24.60;;;;;;;4.13;82.29;100332.94;5036016;28;20199;-70
2021/12/11 07:56:20;;;;;;;71.70;24.30;;;;;;;4.26;81.45;100336.84;5052962;28;20220;-69
2021/12/11 07:58:46;;;;;;;72.83;25.17;;;;;;;4.31;81.49;100342.84;5052759;28;20175;-70
2021/12/11 08:01:12;;;;;;;74.20;25.10;;;;;;;4.12;82.30;100351.47;5036305;28;20640;-69
2021/12/11 08:03:38;;;;;;;78.30;26.00;;;;;;;4.31;81.62;100345.47;5040074;28;20191;-70
2021/12/11 08:06:06;;;;;;;75.70;24.67;;;;;;;4.30;81.78;100343.75;5056175;28;20229;-70
2021/12/11 08:08:31;;;;;;;78.50;25.70;;;;;;;4.30;81.76;100354.31;5036600;28;20198;-69
2021/12/11 08:11:00;;;;;;;74.67;24.73;;;;;;;4.27;81.36;100357.06;5056427;28;20188;-71
2021/12/11 08:13:26;;;;;;;79.33;25.30;;;;;;;4.15;81.81;100357.50;5037526;28;20203;-70
2021/12/11 08:15:54;;;;;;;85.23;26.33;;;;;;;4.30;81.92;100367.53;5057343;28;20233;-69
2021/12/11 08:18:20;;;;;;;81.80;24.40;;;;;;;4.02;81.84;100357.03;5040521;28;20233;-71
2021/12/11 08:20:46;;;;;;;76.53;24.57;;;;;;;4.39;81.74;100371.63;5054158;28;20179;-70
2021/12/11 08:23:14;;;;;;;89.90;26.17;;;;;;;4.51;81.24;100376.50;5035733;28;20242;-71
2021/12/11 08:25:41;;;;;;;84.37;25.33;;;;;;;4.50;81.58;100369.50;5052678;28;20175;-70
2021/12/11 08:28:09;;;;;;;81.70;24.27;;;;;;;4.38;81.51;100364.63;5052059;28;20287;-70
2021/12/11 08:30:37;;;;;;;76.17;24.80;;;;;;;4.42;81.46;100386.50;5035416;28;20313;-71
2021/12/11 08:33:03;;;;;;;79.53;26.00;;;;;;;4.38;80.93;100369.91;5051818;28;20567;-70
2021/12/11 08:35:28;;;;;;;79.87;23.87;;;;;;;4.61;80.90;100377.03;5035479;28;20175;-70
2021/12/11 08:37:54;;;;;;;77.10;26.47;;;;;;;4.62;80.74;100376.13;5035718;28;20179;-69
2021/12/11 08:40:28;;;;;;;79.50;24.40;;;;;;;4.65;81.01;100394.50;5035196;28;20556;-69
2021/12/11 08:42:53;;;;;;;69.80;25.47;;;;;;;4.59;81.17;100392.94;5051959;28;20211;-70
2021/12/11 08:45:23;;;;;;;79.83;25.40;;;;;;;4.54;80.49;100397.53;5035204;28;20245;-70
2021/12/11 08:47:53;;;;;;;74.33;25.83;;;;;;;4.52;81.08;100394.09;5036035;28;20279;-70
2021/12/11 08:50:22;;;;;;;81.13;26.53;;;;;;;4.77;81.25;100412.56;5035457;28;20176;-69
2021/12/11 08:52:50;;;;;;;76.97;26.47;;;;;;;4.63;80.21;100402.50;5052879;28;20192;-70
2021/12/11 08:55:23;;;;;;;74.40;25.07;;;;;;;4.78;80.47;100410.78;5052190;28;20176;-71
2021/12/11 08:57:49;;;;;;;69.27;23.53;;;;;;;4.69;80.50;100418.13;5051849;28;20636;-70
2021/12/11 09:00:26;;;;;;;71.00;23.90;;;;;;;4.85;80.09;100428.19;5052454;28;20176;-70
2021/12/11 09:02:59;;;;;;;71.33;25.20;;;;;;;4.86;80.85;100425.47;5035475;28;20763;-70
2021/12/11 09:05:50;;;;;;;70.00;23.13;;;;;;;4.89;79.52;100416.56;5052032;28;20164;-71
2021/12/11 09:08:20;;;;;;;79.33;25.07;;;;;;;4.81;80.24;100424.75;5032333;28;20203;-71
2021/12/11 09:10:50;;;;;;;71.87;23.83;;;;;;;4.64;81.03;100440.38;5038048;28;20233;-70
2021/12/11 09:13:26;;;;;;;63.37;24.03;;;;;;;4.58;80.61;100422.94;5058318;28;20210;-70
2021/12/11 09:16:03;;;;;;;65.10;24.47;;;;;;;4.95;80.39;100441.00;5039592;28;20178;-70
2021/12/11 09:18:35;;;;;;;62.23;22.57;;;;;;;4.90;79.15;100424.44;5051842;28;20158;-70
2021/12/11 09:21:05;;;;;;;74.73;24.33;;;;;;;4.97;80.60;100455.03;5051827;28;20156;-70
2021/12/11 09:23:42;;;;;;;67.57;23.87;;;;;;;4.81;80.02;100445.03;5035640;28;20219;-71
2021/12/11 09:26:25;;;;;;;67.53;25.47;;;;;;;4.92;80.80;100458.78;5052360;28;20219;-70
2021/12/11 09:28:57;;;;;;;62.33;22.63;;;;;;;4.56;80.94;100448.56;5056578;28;20270;-70
2021/12/11 09:31:44;;;;;;;64.40;22.93;;;;;;;4.71;80.98;100463.88;5055904;28;20170;-70
2021/12/11 09:34:18;;;;;;;68.40;23.40;;;;;;;4.80;80.50;100461.81;5039487;28;20175;-69
2021/12/11 09:36:47;;;;;;;59.27;22.03;;;;;;;4.59;79.71;100437.88;5038643;28;20237;-70
2021/12/11 09:39:25;;;;;;;66.13;23.47;;;;;;;4.88;80.75;100459.81;5055143;28;20168;-69
2021/12/11 09:41:50;;;;;;;53.07;21.97;;;;;;;4.38;81.19;100459.75;5038257;28;20636;-70
2021/12/11 09:44:19;;;;;;;62.20;22.03;;;;;;;4.55;81.23;100467.13;5055183;28;20194;-70
2021/12/11 09:46:49;;;;;;;63.53;23.47;;;;;;;4.62;80.92;100466.84;5055100;28;20190;-71
2021/12/11 09:49:19;;;;;;;58.90;22.23;;;;;;;4.57;81.43;100466.16;5055389;28;20607;-70
2021/12/11 09:51:47;;;;;;;57.33;22.40;;;;;;;4.27;81.67;100483.03;5056148;28;20180;-70
2021/12/11 09:54:19;;;;;;;58.67;22.27;;;;;;;4.58;81.84;100470.53;5055812;28;20172;-70
2021/12/11 09:56:53;;;;;;;63.73;23.10;;;;;;;4.89;81.40;100480.03;5054742;28;20200;-70
2021/12/11 09:59:21;;;;;;;57.07;22.70;;;;;;;4.61;80.55;100474.84;5055385;28;20180;-72
2021/12/11 10:01:51;;;;;;;58.27;21.30;;;;;;;4.68;81.10;100479.00;5055626;28;20255;-70
2021/12/11 10:04:19;;;;;;;60.60;23.37;;;;;;;4.80;80.07;100470.63;5055893;28;20206;-70
2021/12/11 10:07:02;;;;;;;57.37;22.40;;;;;;;4.61;80.87;100478.34;5055095;28;20189;-72
2021/12/11 10:09:34;;;;;;;64.63;23.13;;;;;;;4.54;80.88;100470.69;5039798;28;20537;-71
2021/12/11 10:12:05;;;;;;;61.37;22.67;;;;;;;4.68;81.47;100500.13;5054506;28;20200;-71
2021/12/11 10:14:49;;;;;;;59.23;21.90;;;;;;;4.97;81.08;100509.72;5054476;28;20202;-72
2021/12/11 10:17:40;;;;;;;56.70;22.40;;;;;;;5.02;81.01;100497.19;5055743;28;20159;-73
2021/12/11 10:20:14;;;;;;;60.30;23.53;;;;;;;5.04;80.25;100500.66;5037871;28;20179;-70
2021/12/11 10:22:41;;;;;;;66.13;22.20;;;;;;;4.92;80.15;100493.16;5054082;28;20287;-70
2021/12/11 10:25:11;;;;;;;62.03;22.80;;;;;;;4.80;80.62;100493.56;5055400;28;20179;-69
2021/12/11 10:27:37;;;;;;;58.03;22.33;;;;;;;4.75;80.84;100506.94;5037597;28;20183;-69
2021/12/11 10:30:06;;;;;;;54.87;22.20;;;;;;;4.60;80.80;100510.97;5054606;28;20186;-70
2021/12/11 10:32:32;;;;;;;62.57;23.10;;;;;;;4.61;81.56;100512.72;5038123;28;20529;-70
2021/12/11 10:35:02;;;;;;;53.53;20.77;;;;;;;4.75;80.85;100509.59;5037943;28;20172;-70
2021/12/11 10:37:34;;;;;;;58.43;23.00;;;;;;;4.93;80.22;100502.81;5053746;28;20176;-69
2021/12/11 10:40:08;;;;;;;58.53;22.10;;;;;;;5.00;80.19;100521.06;5037860;28;20164;-70
2021/12/11 10:42:34;;;;;;;54.13;22.20;;;;;;;5.05;80.10;100518.25;5054440;28;20270;-70
2021/12/11 10:45:00;;;;;;;51.87;21.27;;;;;;;4.87;79.99;100514.47;5054043;28;20651;-71
2021/12/11 10:47:39;;;;;;;44.97;20.90;;;;;;;4.72;81.13;100515.84;5037239;28;20178;-70
2021/12/11 10:50:11;;;;;;;48.90;20.80;;;;;;;5.02;80.21;100535.09;5038046;28;20179;-70
2021/12/11 10:52:37;;;;;;;50.33;19.67;;;;;;;4.96;80.41;100537.94;5037615;28;20195;-70
2021/12/11 10:55:09;;;;;;;47.23;20.53;;;;;;;5.14;80.31;100547.00;5053904;28;20256;-70
2021/12/11 10:57:34;;;;;;;48.23;20.23;;;;;;;4.90;80.41;100538.16;5037199;28;20164;-71
2021/12/11 11:00:03;;;;;;;48.70;20.57;;;;;;;4.89;80.74;100549.66;5054181;28;20175;-71
2021/12/11 11:02:30;;;;;;;51.70;19.10;;;;;;;4.88;81.11;100552.38;5054131;28;20198;-71
2021/12/11 11:04:59;;;;;;;56.27;21.03;;;;;;;5.30;80.76;100556.16;5054004;28;20543;-71
2021/12/11 11:07:27;;;;;;;46.17;20.30;;;;;;;5.41;79.95;100547.81;5037284;28;20168;-71
2021/12/11 11:09:55;;;;;;;48.33;21.30;;;;;;;5.00;80.98;100551.94;5036843;28;20187;-70
2021/12/11 11:12:21;;;;;;;44.20;19.93;;;;;;;5.05;80.51;100549.13;5054467;28;20613;-71
2021/12/11 11:14:48;;;;;;;45.43;19.93;;;;;;;5.30;80.88;100557.94;5068950;28;20179;-71
2021/12/11 11:17:17;;;;;;;46.33;19.37;;;;;;;5.00;80.12;100541.34;5071113;28;20182;-70
2021/12/11 11:19:43;;;;;;;40.80;19.40;;;;;;;4.96;81.03;100569.69;5054439;28;20172;-71
2021/12/11 11:22:12;;;;;;;49.90;20.80;;;;;;;5.25;81.07;100571.34;5070871;28;20203;-71
2021/12/11 11:24:45;;;;;;;45.10;18.53;;;;;;;5.55;80.73;100573.78;5040464;28;20536;-70
2021/12/11 11:27:10;;;;;;;44.20;19.53;;;;;;;5.76;79.71;100562.41;5053192;28;20186;-70
2021/12/11 11:29:38;;;;;;;45.33;20.60;;;;;;;5.59;79.44;100564.84;5036492;28;20219;-70
2021/12/11 11:32:10;;;;;;;45.83;21.57;;;;;;;4.92;81.37;100583.06;5055217;28;20200;-71
2021/12/11 11:34:40;;;;;;;45.80;19.67;;;;;;;4.86;80.50;100543.63;5053188;28;20172;-71
2021/12/11 11:37:07;;;;;;;51.47;20.47;;;;;;;4.74;82.01;100587.19;5036836;28;20168;-70
2021/12/11 11:39:33;;;;;;;47.37;22.13;;;;;;;4.94;81.92;100590.03;5052732;28;20167;-70